createdAt,value
2022-12-19T00:00:32.858Z,-4.34
2022-12-19T00:05:39.194Z,-4.38
2022-12-19T00:10:41.420Z,-4.36
2022-12-19T00:15:43.195Z,-4.33
2022-12-19T00:20:44.597Z,-4.36
2022-12-19T00:25:46.071Z,-4.23
2022-12-19T00:30:48.776Z,-4.34
2022-12-19T00:35:50.265Z,-4.35
2022-12-19T00:40:51.736Z,-4.35
2022-12-19T00:45:53.155Z,-4.33
2022-12-19T00:51:02.472Z,-4.37
2022-12-19T00:56:06.178Z,-4.36
2022-12-19T01:01:33.299Z,-4.20
2022-12-19T01:06:34.910Z,-4.23
2022-12-19T01:11:54.848Z,-4.12
2022-12-19T01:16:56.630Z,-4.12
2022-12-19T01:21:58.051Z,-4.08
2022-12-19T01:27:00.385Z,-3.94
2022-12-19T01:32:01.897Z,-3.81
2022-12-19T01:37:03.477Z,-3.76
2022-12-19T01:42:18.466Z,-3.76
2022-12-19T01:47:25.273Z,-3.76
2022-12-19T01:52:26.771Z,-3.63
2022-12-19T01:57:29.342Z,-3.68
2022-12-19T02:02:43.331Z,-3.63
2022-12-19T02:07:46.041Z,-3.51
2022-12-19T02:12:47.539Z,-3.43
2022-12-19T02:17:51.302Z,-3.40
2022-12-19T02:23:00.576Z,-3.32
2022-12-19T02:28:30.411Z,-3.35
2022-12-19T02:33:46.435Z,-3.35
2022-12-19T02:38:58.047Z,-3.27
2022-12-19T02:44:00.334Z,-3.19
2022-12-19T02:49:02.484Z,-3.13
2022-12-19T02:54:05.382Z,-3.13
2022-12-19T02:59:31.276Z,-3.11
2022-12-19T03:04:52.100Z,-3.07
2022-12-19T03:10:15.636Z,-3.00
2022-12-19T03:15:17.696Z,-2.98
2022-12-19T03:20:47.945Z,-2.94
2022-12-19T03:25:54.216Z,-2.80
2022-12-19T03:30:59.690Z,-2.76
2022-12-19T03:36:04.907Z,-2.80
2022-12-19T03:41:09.904Z,-2.72
2022-12-19T03:46:20.591Z,-2.66
2022-12-19T03:51:22.039Z,-2.67
2022-12-19T03:56:26.659Z,-2.59
2022-12-19T04:01:29.221Z,-2.69
2022-12-19T04:06:34.360Z,-2.72
2022-12-19T04:11:41.901Z,-2.67
2022-12-19T04:17:04.463Z,-2.58
2022-12-19T04:22:15.404Z,-2.46
2022-12-19T04:27:18.195Z,-2.48
2022-12-19T04:32:20.909Z,-2.43
2022-12-19T04:37:22.380Z,-2.46
2022-12-19T04:42:23.820Z,-2.42
2022-12-19T04:47:25.468Z,-2.36
2022-12-19T04:52:26.967Z,-2.24
2022-12-19T04:57:31.754Z,-2.24
2022-12-19T05:02:33.291Z,-2.31
2022-12-19T05:07:34.861Z,-2.23
2022-12-19T05:12:36.316Z,-2.16
2022-12-19T05:17:37.963Z,-2.07
2022-12-19T05:22:39.378Z,-2.03
2022-12-19T05:27:40.878Z,-1.97
2022-12-19T05:32:42.604Z,-1.88
2022-12-19T05:37:44.010Z,-1.77
2022-12-19T05:42:45.550Z,-1.82
2022-12-19T05:47:47.933Z,-1.71
2022-12-19T05:52:49.442Z,-1.63
2022-12-19T05:57:50.873Z,-1.66
2022-12-19T06:02:52.426Z,-1.56
2022-12-19T06:07:54.399Z,-1.48
2022-12-19T06:12:55.947Z,-1.52
2022-12-19T06:17:57.489Z,-1.45
2022-12-19T06:22:59.229Z,-1.40
2022-12-19T06:28:00.687Z,-1.39
2022-12-19T06:33:02.215Z,-1.30
2022-12-19T06:38:03.650Z,-1.27
2022-12-19T06:43:05.176Z,-1.19
2022-12-19T06:48:06.727Z,-1.05
2022-12-19T06:53:08.141Z,-1.06
2022-12-19T06:58:09.974Z,-1.03
2022-12-19T07:03:14.800Z,-0.88
2022-12-19T07:08:16.442Z,-0.85
2022-12-19T07:13:17.860Z,-0.77
2022-12-19T07:18:19.445Z,-0.75
2022-12-19T07:23:22.046Z,-0.58
2022-12-19T07:28:23.791Z,-0.51
2022-12-19T07:33:25.256Z,-0.58
2022-12-19T07:38:26.754Z,-0.59
2022-12-19T07:43:28.288Z,-0.53
2022-12-19T07:48:31.811Z,-0.59
2022-12-19T07:53:33.273Z,-0.39
2022-12-19T07:58:34.768Z,-0.28
2022-12-19T08:03:36.222Z,-0.20
2022-12-19T08:08:37.984Z,-0.12
2022-12-19T08:13:46.001Z,-0.03
2022-12-19T08:18:48.213Z,0.07
2022-12-19T08:23:49.960Z,-0.00
2022-12-19T08:28:53.120Z,0.07
2022-12-19T08:33:56.877Z,0.06
2022-12-19T08:38:58.377Z,0.10
2022-12-19T08:44:01.784Z,0.17
2022-12-19T08:49:03.581Z,0.15
2022-12-19T08:54:07.755Z,0.27
2022-12-19T08:59:12.388Z,0.38
2022-12-19T09:05:19.497Z,0.43
2022-12-19T09:09:36.586Z,0.51
2022-12-19T09:14:38.078Z,0.55
2022-12-19T09:19:41.215Z,0.58
2022-12-19T09:24:47.114Z,0.62
2022-12-19T09:29:48.663Z,0.55
2022-12-19T09:34:50.125Z,0.65
2022-12-19T09:39:51.584Z,0.67
2022-12-19T09:45:09.190Z,0.71
2022-12-19T09:50:53.607Z,0.79
2022-12-19T09:55:58.318Z,0.90
2022-12-19T10:01:04.513Z,0.91
2022-12-19T10:07:22.062Z,0.86
2022-12-19T10:12:46.642Z,0.91
2022-12-19T10:17:33.194Z,1.00
2022-12-19T10:22:43.868Z,1.03
2022-12-19T10:28:09.616Z,0.99
2022-12-19T10:33:22.657Z,1.02
2022-12-19T10:38:31.854Z,1.03
2022-12-19T10:43:46.564Z,1.07
2022-12-19T10:48:50.590Z,1.14
2022-12-19T10:53:57.429Z,1.20
2022-12-19T10:59:00.451Z,1.23
2022-12-19T11:04:25.633Z,1.31
2022-12-19T11:09:35.918Z,1.38
2022-12-19T11:17:51.078Z,1.39
2022-12-19T11:29:43.816Z,1.39
2022-12-19T11:30:38.647Z,1.41
2022-12-19T11:37:03.189Z,1.50
2022-12-19T11:42:07.651Z,1.43
2022-12-19T11:47:29.071Z,1.46
2022-12-19T11:58:01.871Z,1.52
2022-12-19T12:03:18.802Z,1.61
2022-12-19T12:10:19.549Z,1.66
2022-12-19T12:24:21.294Z,1.68
2022-12-19T12:31:31.133Z,1.74
2022-12-19T12:32:00.975Z,1.72
2022-12-19T12:43:23.679Z,2.02
2022-12-19T12:48:46.088Z,2.07
2022-12-19T12:53:49.390Z,2.17
2022-12-19T12:58:54.011Z,2.08
2022-12-19T13:04:11.061Z,2.20
2022-12-19T13:09:28.479Z,2.22
2022-12-19T13:14:35.778Z,2.36
2022-12-19T13:19:53.163Z,2.28
2022-12-19T13:24:57.044Z,2.32
2022-12-19T13:30:01.302Z,2.32
2022-12-19T13:35:50.734Z,2.33
2022-12-19T13:40:33.174Z,2.29
2022-12-19T13:45:35.239Z,2.31
2022-12-19T13:50:41.340Z,2.36
2022-12-19T13:55:42.788Z,2.32
2022-12-19T14:00:47.443Z,2.45
2022-12-19T14:06:18.457Z,2.47
2022-12-19T14:11:41.032Z,2.60
2022-12-19T14:16:44.411Z,2.69
2022-12-19T14:22:07.141Z,2.67
2022-12-19T14:28:21.569Z,2.77
2022-12-19T14:33:44.840Z,2.73
2022-12-19T14:39:19.797Z,2.81
2022-12-19T14:43:59.488Z,2.89
2022-12-19T14:52:51.693Z,2.87
2022-12-19T14:59:47.776Z,2.92
2022-12-19T15:05:04.003Z,3.03
2022-12-19T15:11:07.603Z,3.11
2022-12-19T15:15:51.672Z,3.09
2022-12-19T15:20:56.621Z,3.09
2022-12-19T15:26:06.208Z,3.20
2022-12-19T15:31:34.748Z,3.20
2022-12-19T15:36:36.938Z,3.19
2022-12-19T15:41:38.471Z,3.19
2022-12-19T15:46:44.712Z,3.29
2022-12-19T15:51:50.555Z,3.22
2022-12-19T15:56:54.998Z,3.26
2022-12-19T16:01:57.464Z,3.38
2022-12-19T16:06:59.072Z,3.36
2022-12-19T16:12:00.634Z,3.32
2022-12-19T16:17:02.197Z,3.23
2022-12-19T16:22:17.560Z,3.25
2022-12-19T16:27:28.014Z,3.23
2022-12-19T16:32:29.449Z,3.25
2022-12-19T16:37:32.562Z,3.32
2022-12-19T16:42:34.210Z,3.33
2022-12-19T16:47:35.754Z,3.32
2022-12-19T16:52:42.353Z,3.39
2022-12-19T16:57:46.529Z,3.47
2022-12-19T17:02:53.219Z,3.43
2022-12-19T17:07:55.286Z,3.46
2022-12-19T17:12:58.252Z,3.55
2022-12-19T17:18:14.192Z,3.59
2022-12-19T17:23:19.039Z,3.64
2022-12-19T17:28:20.649Z,3.70
2022-12-19T17:33:24.192Z,3.75
2022-12-19T17:38:27.196Z,3.87
2022-12-19T17:43:28.847Z,3.77
2022-12-19T17:48:32.702Z,3.86
2022-12-19T17:53:34.171Z,4.06
2022-12-19T17:58:35.654Z,4.15
2022-12-19T18:03:37.245Z,4.37
2022-12-19T18:08:38.834Z,4.38
2022-12-19T18:13:40.297Z,4.38
2022-12-19T18:18:41.964Z,4.51
2022-12-19T18:23:44.518Z,4.57
2022-12-19T18:28:46.303Z,4.65
2022-12-19T18:33:48.032Z,4.75
2022-12-19T18:38:50.214Z,4.77
2022-12-19T18:43:51.765Z,4.90
2022-12-19T18:48:53.238Z,4.89
2022-12-19T18:53:56.955Z,4.98
2022-12-19T18:58:58.453Z,4.90
2022-12-19T19:04:00.181Z,4.90
2022-12-19T19:09:01.914Z,4.87
2022-12-19T19:14:03.423Z,4.88
2022-12-19T19:19:07.045Z,4.85
2022-12-19T19:24:15.141Z,4.73
2022-12-19T19:29:18.978Z,4.82
2022-12-19T19:34:31.248Z,4.91
2022-12-19T19:39:34.319Z,4.83
2022-12-19T19:44:35.921Z,4.83
2022-12-19T19:49:37.387Z,4.93
2022-12-19T19:54:38.817Z,4.92
2022-12-19T19:59:40.484Z,4.85
2022-12-19T20:04:42.017Z,4.96
2022-12-19T20:09:43.723Z,4.89
2022-12-19T20:14:45.250Z,4.92
2022-12-19T20:19:46.854Z,4.95
2022-12-19T20:24:48.381Z,4.93
2022-12-19T20:29:50.162Z,5.05
2022-12-19T20:34:51.641Z,5.07
2022-12-19T20:39:53.134Z,4.98
2022-12-19T20:44:54.606Z,4.94
2022-12-19T20:49:56.024Z,4.93
2022-12-19T20:54:57.490Z,4.83
2022-12-19T20:59:59.174Z,4.89
2022-12-19T21:05:00.726Z,4.87
2022-12-19T21:10:02.260Z,4.78
2022-12-19T21:15:04.127Z,4.90
2022-12-19T21:20:06.393Z,4.96
2022-12-19T21:25:08.478Z,4.90
2022-12-19T21:30:10.333Z,4.90
2022-12-19T21:35:12.104Z,4.94
2022-12-19T21:40:13.935Z,4.89
2022-12-19T21:45:15.879Z,4.83
2022-12-19T21:50:17.693Z,4.86
2022-12-19T21:55:19.213Z,4.78
2022-12-19T22:00:20.878Z,4.79
2022-12-19T22:05:22.350Z,4.86
2022-12-19T22:10:23.884Z,4.89
2022-12-19T22:15:25.324Z,5.03
2022-12-19T22:20:26.801Z,4.97
2022-12-19T22:25:28.276Z,5.04
2022-12-19T22:30:33.067Z,4.96
2022-12-19T22:35:34.639Z,5.05
2022-12-19T22:40:36.559Z,5.18
2022-12-19T22:45:38.075Z,5.10
2022-12-19T22:50:45.411Z,5.14
2022-12-19T22:55:46.866Z,5.22
2022-12-19T23:00:48.343Z,5.14
2022-12-19T23:05:51.995Z,5.19
2022-12-19T23:10:54.738Z,5.18
2022-12-19T23:15:57.289Z,5.18
2022-12-19T23:21:13.144Z,5.13
2022-12-19T23:26:21.437Z,5.14
2022-12-19T23:31:23.780Z,5.15
2022-12-19T23:41:47.739Z,5.17
2022-12-19T23:46:49.385Z,5.19
2022-12-19T23:51:50.879Z,5.25
2022-12-19T23:56:53.356Z,5.20
